sensor_id;sensor_type;location;lat;lon;timestamp;temperature;humidity
7720;DHT22;3902;49.474;8.616;2024-01-27T00:01:26;5.40;99.90
7720;DHT22;3902;49.474;8.616;2024-01-27T00:03:52;5.40;99.90
7720;DHT22;3902;49.474;8.616;2024-01-27T00:06:19;5.40;99.90
7720;DHT22;3902;49.474;8.616;2024-01-27T00:08:44;5.30;99.90
7720;DHT22;3902;49.474;8.616;2024-01-27T00:11:11;5.30;99.90
7720;DHT22;3902;49.474;8.616;2024-01-27T00:13:37;5.30;99.90
7720;DHT22;3902;49.474;8.616;2024-01-27T00:16:02;5.30;99.90
7720;DHT22;3902;49.474;8.616;2024-01-27T00:18:28;5.20;99.90
7720;DHT22;3902;49.474;8.616;2024-01-27T00:20:53;5.20;99.90
7720;DHT22;3902;49.474;8.616;2024-01-27T00:23:19;5.20;99.90
7720;DHT22;3902;49.474;8.616;2024-01-27T00:25:44;5.20;99.90
7720;DHT22;3902;49.474;8.616;2024-01-27T00:28:10;5.10;99.90
7720;DHT22;3902;49.474;8.616;2024-01-27T00:30:35;5.10;99.90
7720;DHT22;3902;49.474;8.616;2024-01-27T00:33:01;5.10;99.90
7720;DHT22;3902;49.474;8.616;2024-01-27T00:35:26;5.00;99.90
7720;DHT22;3902;49.474;8.616;2024-01-27T00:37:52;5.00;99.90
7720;DHT22;3902;49.474;8.616;2024-01-27T00:40:18;5.00;99.90
7720;DHT22;3902;49.474;8.616;2024-01-27T00:42:43;5.00;99.90
7720;DHT22;3902;49.474;8.616;2024-01-27T00:45:09;5.00;99.90
7720;DHT22;3902;49.474;8.616;2024-01-27T00:47:34;5.00;99.90
7720;DHT22;3902;49.474;8.616;2024-01-27T00:50:00;5.00;99.90
7720;DHT22;3902;49.474;8.616;2024-01-27T00:52:26;4.90;99.90
7720;DHT22;3902;49.474;8.616;2024-01-27T00:54:51;4.90;99.90
7720;DHT22;3902;49.474;8.616;2024-01-27T00:57:17;4.90;99.90
7720;DHT22;3902;49.474;8.616;2024-01-27T00:59:43;4.90;99.90
7720;DHT22;3902;49.474;8.616;2024-01-27T01:02:08;4.90;99.90
7720;DHT22;3902;49.474;8.616;2024-01-27T01:04:34;4.90;99.90
7720;DHT22;3902;49.474;8.616;2024-01-27T01:06:59;4.80;99.90
7720;DHT22;3902;49.474;8.616;2024-01-27T01:09:25;4.80;99.90
7720;DHT22;3902;49.474;8.616;2024-01-27T01:11:51;4.80;99.90
7720;DHT22;3902;49.474;8.616;2024-01-27T01:14:16;4.90;99.90
7720;DHT22;3902;49.474;8.616;2024-01-27T01:16:42;4.80;99.90
7720;DHT22;3902;49.474;8.616;2024-01-27T01:19:07;4.80;99.90
7720;DHT22;3902;49.474;8.616;2024-01-27T01:21:33;4.80;99.90
7720;DHT22;3902;49.474;8.616;2024-01-27T01:23:59;4.80;99.90
7720;DHT22;3902;49.474;8.616;2024-01-27T01:26:25;4.80;99.90
7720;DHT22;3902;49.474;8.616;2024-01-27T01:28:51;4.80;99.90
7720;DHT22;3902;49.474;8.616;2024-01-27T01:31:16;4.70;99.90
7720;DHT22;3902;49.474;8.616;2024-01-27T01:33:43;4.70;99.90
7720;DHT22;3902;49.474;8.616;2024-01-27T01:36:08;4.70;99.90
7720;DHT22;3902;49.474;8.616;2024-01-27T01:38:34;4.70;99.90
7720;DHT22;3902;49.474;8.616;2024-01-27T01:41:00;4.70;99.90
7720;DHT22;3902;49.474;8.616;2024-01-27T01:43:25;4.60;99.90
7720;DHT22;3902;49.474;8.616;2024-01-27T01:45:51;4.60;99.90
7720;DHT22;3902;49.474;8.616;2024-01-27T01:48:19;4.60;99.90
7720;DHT22;3902;49.474;8.616;2024-01-27T01:50:45;4.60;99.90
7720;DHT22;3902;49.474;8.616;2024-01-27T01:53:12;4.50;99.90
7720;DHT22;3902;49.474;8.616;2024-01-27T01:55:38;4.50;99.90
7720;DHT22;3902;49.474;8.616;2024-01-27T01:58:04;4.50;99.90
7720;DHT22;3902;49.474;8.616;2024-01-27T02:00:30;4.50;99.90
7720;DHT22;3902;49.474;8.616;2024-01-27T02:02:55;4.50;99.90
7720;DHT22;3902;49.474;8.616;2024-01-27T02:05:21;4.50;99.90
7720;DHT22;3902;49.474;8.616;2024-01-27T02:07:46;4.50;99.90
7720;DHT22;3902;49.474;8.616;2024-01-27T02:10:14;4.40;99.90
7720;DHT22;3902;49.474;8.616;2024-01-27T02:12:44;4.40;99.90
7720;DHT22;3902;49.474;8.616;2024-01-27T02:15:11;4.40;99.90
7720;DHT22;3902;49.474;8.616;2024-01-27T02:17:38;4.40;99.90
7720;DHT22;3902;49.474;8.616;2024-01-27T02:20:05;4.30;99.90
7720;DHT22;3902;49.474;8.616;2024-01-27T02:22:35;4.30;99.90
7720;DHT22;3902;49.474;8.616;2024-01-27T02:25:01;4.30;99.90
7720;DHT22;3902;49.474;8.616;2024-01-27T02:27:27;4.30;99.90
7720;DHT22;3902;49.474;8.616;2024-01-27T02:29:53;4.20;99.90
7720;DHT22;3902;49.474;8.616;2024-01-27T02:32:18;4.20;99.90
7720;DHT22;3902;49.474;8.616;2024-01-27T02:34:44;4.20;99.90
7720;DHT22;3902;49.474;8.616;2024-01-27T02:37:09;4.20;99.90
7720;DHT22;3902;49.474;8.616;2024-01-27T02:39:35;4.20;99.90
7720;DHT22;3902;49.474;8.616;2024-01-27T02:42:01;4.20;99.90
7720;DHT22;3902;49.474;8.616;2024-01-27T02:44:27;4.20;99.90
7720;DHT22;3902;49.474;8.616;2024-01-27T02:46:52;4.20;99.90
7720;DHT22;3902;49.474;8.616;2024-01-27T02:49:18;4.20;99.90
7720;DHT22;3902;49.474;8.616;2024-01-27T02:51:43;4.10;99.90
7720;DHT22;3902;49.474;8.616;2024-01-27T02:54:09;4.10;99.90
7720;DHT22;3902;49.474;8.616;2024-01-27T02:56:35;4.10;99.90
7720;DHT22;3902;49.474;8.616;2024-01-27T02:59:00;4.10;99.90
7720;DHT22;3902;49.474;8.616;2024-01-27T03:01:26;4.10;99.90
7720;DHT22;3902;49.474;8.616;2024-01-27T03:03:51;4.10;99.90
7720;DHT22;3902;49.474;8.616;2024-01-27T03:06:17;4.10;99.90
7720;DHT22;3902;49.474;8.616;2024-01-27T03:08:43;4.10;99.90
7720;DHT22;3902;49.474;8.616;2024-01-27T03:11:08;4.10;99.90
7720;DHT22;3902;49.474;8.616;2024-01-27T03:13:34;4.00;99.90
7720;DHT22;3902;49.474;8.616;2024-01-27T03:15:59;4.00;99.90
7720;DHT22;3902;49.474;8.616;2024-01-27T03:18:25;4.10;99.90
7720;DHT22;3902;49.474;8.616;2024-01-27T03:20:50;4.00;99.90
7720;DHT22;3902;49.474;8.616;2024-01-27T03:23:16;4.00;99.90
7720;DHT22;3902;49.474;8.616;2024-01-27T03:25:41;4.00;99.90
7720;DHT22;3902;49.474;8.616;2024-01-27T03:28:07;4.00;99.90
7720;DHT22;3902;49.474;8.616;2024-01-27T03:30:32;3.90;99.90
7720;DHT22;3902;49.474;8.616;2024-01-27T03:32:58;3.90;99.90
7720;DHT22;3902;49.474;8.616;2024-01-27T03:35:23;3.90;99.90
7720;DHT22;3902;49.474;8.616;2024-01-27T03:37:49;3.90;99.90
7720;DHT22;3902;49.474;8.616;2024-01-27T03:40:15;3.90;99.90
7720;DHT22;3902;49.474;8.616;2024-01-27T03:42:40;3.80;99.90
7720;DHT22;3902;49.474;8.616;2024-01-27T03:45:06;3.80;99.90
7720;DHT22;3902;49.474;8.616;2024-01-27T03:47:31;3.80;99.90
7720;DHT22;3902;49.474;8.616;2024-01-27T03:49:57;3.80;99.90
7720;DHT22;3902;49.474;8.616;2024-01-27T03:52:22;3.80;99.90
7720;DHT22;3902;49.474;8.616;2024-01-27T03:54:48;3.80;99.90
7720;DHT22;3902;49.474;8.616;2024-01-27T03:57:13;3.80;99.90
7720;DHT22;3902;49.474;8.616;2024-01-27T03:59:42;3.70;99.90
7720;DHT22;3902;49.474;8.616;2024-01-27T04:02:07;3.80;99.90
7720;DHT22;3902;49.474;8.616;2024-01-27T04:04:33;3.70;99.90
7720;DHT22;3902;49.474;8.616;2024-01-27T04:06:59;3.70;99.90
7720;DHT22;3902;49.474;8.616;2024-01-27T04:09:24;3.70;99.90
7720;DHT22;3902;49.474;8.616;2024-01-27T04:11:50;3.70;99.90
7720;DHT22;3902;49.474;8.616;2024-01-27T04:14:16;3.70;99.90
7720;DHT22;3902;49.474;8.616;2024-01-27T04:16:41;3.70;99.90
7720;DHT22;3902;49.474;8.616;2024-01-27T04:19:07;3.70;99.90
7720;DHT22;3902;49.474;8.616;2024-01-27T04:21:32;3.60;99.90
7720;DHT22;3902;49.474;8.616;2024-01-27T04:23:58;3.70;99.90
7720;DHT22;3902;49.474;8.616;2024-01-27T04:26:23;3.60;99.90
7720;DHT22;3902;49.474;8.616;2024-01-27T04:28:49;3.60;99.90
7720;DHT22;3902;49.474;8.616;2024-01-27T04:31:14;3.60;99.90
7720;DHT22;3902;49.474;8.616;2024-01-27T04:33:40;3.60;99.90
7720;DHT22;3902;49.474;8.616;2024-01-27T04:36:06;3.60;99.90
7720;DHT22;3902;49.474;8.616;2024-01-27T04:38:35;3.60;99.90
7720;DHT22;3902;49.474;8.616;2024-01-27T04:41:01;3.60;99.90
7720;DHT22;3902;49.474;8.616;2024-01-27T04:43:27;3.50;99.90
7720;DHT22;3902;49.474;8.616;2024-01-27T04:45:54;3.60;99.90
7720;DHT22;3902;49.474;8.616;2024-01-27T04:48:19;3.50;99.90
7720;DHT22;3902;49.474;8.616;2024-01-27T04:50:45;3.50;99.90
7720;DHT22;3902;49.474;8.616;2024-01-27T04:53:12;3.60;99.90
7720;DHT22;3902;49.474;8.616;2024-01-27T04:55:37;3.50;99.90
7720;DHT22;3902;49.474;8.616;2024-01-27T04:58:04;3.50;99.90
7720;DHT22;3902;49.474;8.616;2024-01-27T05:00:29;3.50;99.90
7720;DHT22;3902;49.474;8.616;2024-01-27T05:02:55;3.50;99.90
7720;DHT22;3902;49.474;8.616;2024-01-27T05:05:21;3.50;99.90
7720;DHT22;3902;49.474;8.616;2024-01-27T05:07:46;3.50;99.90
7720;DHT22;3902;49.474;8.616;2024-01-27T05:10:15;3.60;99.90
7720;DHT22;3902;49.474;8.616;2024-01-27T05:12:41;3.60;99.90
7720;DHT22;3902;49.474;8.616;2024-01-27T05:15:06;3.50;99.90
7720;DHT22;3902;49.474;8.616;2024-01-27T05:17:32;3.50;99.90
7720;DHT22;3902;49.474;8.616;2024-01-27T05:19:58;3.50;99.90
7720;DHT22;3902;49.474;8.616;2024-01-27T05:22:24;3.50;99.90
7720;DHT22;3902;49.474;8.616;2024-01-27T05:24:49;3.50;99.90
7720;DHT22;3902;49.474;8.616;2024-01-27T05:27:15;3.50;99.90
7720;DHT22;3902;49.474;8.616;2024-01-27T05:29:40;3.50;99.90
7720;DHT22;3902;49.474;8.616;2024-01-27T05:32:06;3.50;99.90
7720;DHT22;3902;49.474;8.616;2024-01-27T05:34:32;3.50;99.90
7720;DHT22;3902;49.474;8.616;2024-01-27T05:36:57;3.50;99.90
7720;DHT22;3902;49.474;8.616;2024-01-27T05:39:23;3.50;99.90
7720;DHT22;3902;49.474;8.616;2024-01-27T05:41:49;3.40;99.90
7720;DHT22;3902;49.474;8.616;2024-01-27T05:44:14;3.40;99.90
7720;DHT22;3902;49.474;8.616;2024-01-27T05:46:40;3.40;99.90
7720;DHT22;3902;49.474;8.616;2024-01-27T05:49:05;3.40;99.90
7720;DHT22;3902;49.474;8.616;2024-01-27T05:51:31;3.50;99.90
7720;DHT22;3902;49.474;8.616;2024-01-27T05:53:56;3.50;99.90
7720;DHT22;3902;49.474;8.616;2024-01-27T05:56:22;3.50;99.90
7720;DHT22;3902;49.474;8.616;2024-01-27T05:58:48;3.50;99.90
7720;DHT22;3902;49.474;8.616;2024-01-27T06:01:13;3.50;99.90
7720;DHT22;3902;49.474;8.616;2024-01-27T06:03:43;3.50;99.90
7720;DHT22;3902;49.474;8.616;2024-01-27T06:06:09;3.50;99.90
7720;DHT22;3902;49.474;8.616;2024-01-27T06:08:34;3.50;99.90
7720;DHT22;3902;49.474;8.616;2024-01-27T06:11:00;3.40;99.90
7720;DHT22;3902;49.474;8.616;2024-01-27T06:13:26;3.40;99.90
7720;DHT22;3902;49.474;8.616;2024-01-27T06:15:52;3.50;99.90
7720;DHT22;3902;49.474;8.616;2024-01-27T06:18:17;3.40;99.90
7720;DHT22;3902;49.474;8.616;2024-01-27T06:20:43;3.40;99.90
7720;DHT22;3902;49.474;8.616;2024-01-27T06:23:09;3.40;99.90
7720;DHT22;3902;49.474;8.616;2024-01-27T06:25:34;3.40;99.90
7720;DHT22;3902;49.474;8.616;2024-01-27T06:28:00;3.40;99.90
7720;DHT22;3902;49.474;8.616;2024-01-27T06:30:26;3.50;99.90
7720;DHT22;3902;49.474;8.616;2024-01-27T06:32:51;3.50;99.90
7720;DHT22;3902;49.474;8.616;2024-01-27T06:35:17;3.50;99.90
7720;DHT22;3902;49.474;8.616;2024-01-27T06:37:43;3.50;99.90
7720;DHT22;3902;49.474;8.616;2024-01-27T06:40:08;3.50;99.90
7720;DHT22;3902;49.474;8.616;2024-01-27T06:42:37;3.50;99.90
7720;DHT22;3902;49.474;8.616;2024-01-27T06:45:03;3.40;99.90
7720;DHT22;3902;49.474;8.616;2024-01-27T06:47:29;3.40;99.90
7720;DHT22;3902;49.474;8.616;2024-01-27T06:49:55;3.50;99.90
7720;DHT22;3902;49.474;8.616;2024-01-27T06:52:20;3.40;99.90
7720;DHT22;3902;49.474;8.616;2024-01-27T06:54:46;3.50;99.90
7720;DHT22;3902;49.474;8.616;2024-01-27T06:57:22;3.50;99.90
7720;DHT22;3902;49.474;8.616;2024-01-27T06:59:48;3.50;99.90
7720;DHT22;3902;49.474;8.616;2024-01-27T07:02:28;3.40;99.90
7720;DHT22;3902;49.474;8.616;2024-01-27T07:04:56;3.50;99.90
7720;DHT22;3902;49.474;8.616;2024-01-27T07:07:25;3.50;99.90
7720;DHT22;3902;49.474;8.616;2024-01-27T07:09:51;3.50;99.90
7720;DHT22;3902;49.474;8.616;2024-01-27T07:12:17;3.50;99.90
7720;DHT22;3902;49.474;8.616;2024-01-27T07:14:42;3.40;99.90
7720;DHT22;3902;49.474;8.616;2024-01-27T07:17:08;3.30;99.90
7720;DHT22;3902;49.474;8.616;2024-01-27T07:19:33;3.40;99.90
7720;DHT22;3902;49.474;8.616;2024-01-27T07:21:59;3.30;99.90
7720;DHT22;3902;49.474;8.616;2024-01-27T07:24:29;3.30;99.90
7720;DHT22;3902;49.474;8.616;2024-01-27T07:26:54;3.30;99.90
7720;DHT22;3902;49.474;8.616;2024-01-27T07:29:20;3.40;99.90
7720;DHT22;3902;49.474;8.616;2024-01-27T07:31:46;3.40;99.90
7720;DHT22;3902;49.474;8.616;2024-01-27T07:34:11;3.30;99.90
7720;DHT22;3902;49.474;8.616;2024-01-27T07:36:37;3.30;99.90
7720;DHT22;3902;49.474;8.616;2024-01-27T07:39:02;3.30;99.90
7720;DHT22;3902;49.474;8.616;2024-01-27T07:41:30;3.30;99.90
7720;DHT22;3902;49.474;8.616;2024-01-27T07:43:56;3.30;99.90
7720;DHT22;3902;49.474;8.616;2024-01-27T07:46:21;3.30;99.90
7720;DHT22;3902;49.474;8.616;2024-01-27T07:48:48;3.30;99.90
7720;DHT22;3902;49.474;8.616;2024-01-27T07:51:15;3.30;99.90
7720;DHT22;3902;49.474;8.616;2024-01-27T07:53:40;3.30;99.90
7720;DHT22;3902;49.474;8.616;2024-01-27T07:56:07;3.30;99.90
7720;DHT22;3902;49.474;8.616;2024-01-27T07:58:33;3.30;99.90
7720;DHT22;3902;49.474;8.616;2024-01-27T08:00:59;3.40;99.90
7720;DHT22;3902;49.474;8.616;2024-01-27T08:03:24;3.40;99.90
7720;DHT22;3902;49.474;8.616;2024-01-27T08:05:50;3.40;99.90
7720;DHT22;3902;49.474;8.616;2024-01-27T08:08:15;3.40;99.90
7720;DHT22;3902;49.474;8.616;2024-01-27T08:10:41;3.40;99.90
7720;DHT22;3902;49.474;8.616;2024-01-27T08:13:06;3.50;99.90
7720;DHT22;3902;49.474;8.616;2024-01-27T08:15:33;3.50;99.90
7720;DHT22;3902;49.474;8.616;2024-01-27T08:17:58;3.40;99.90
7720;DHT22;3902;49.474;8.616;2024-01-27T08:20:24;3.50;99.90
7720;DHT22;3902;49.474;8.616;2024-01-27T08:22:49;3.50;99.90
7720;DHT22;3902;49.474;8.616;2024-01-27T08:25:17;3.50;99.90
7720;DHT22;3902;49.474;8.616;2024-01-27T08:27:43;3.60;99.90
7720;DHT22;3902;49.474;8.616;2024-01-27T08:30:09;3.60;99.90
7720;DHT22;3902;49.474;8.616;2024-01-27T08:32:35;3.70;99.90
7720;DHT22;3902;49.474;8.616;2024-01-27T08:35:01;3.70;99.90
7720;DHT22;3902;49.474;8.616;2024-01-27T08:37:28;3.70;99.90
7720;DHT22;3902;49.474;8.616;2024-01-27T08:39:55;3.70;99.90
7720;DHT22;3902;49.474;8.616;2024-01-27T08:42:20;3.80;99.90
7720;DHT22;3902;49.474;8.616;2024-01-27T08:44:46;3.80;99.90
7720;DHT22;3902;49.474;8.616;2024-01-27T08:47:11;3.80;99.90
7720;DHT22;3902;49.474;8.616;2024-01-27T08:49:37;3.90;99.90
7720;DHT22;3902;49.474;8.616;2024-01-27T08:52:02;3.90;99.90
7720;DHT22;3902;49.474;8.616;2024-01-27T08:54:28;3.90;99.90
7720;DHT22;3902;49.474;8.616;2024-01-27T08:56:53;3.90;99.90
7720;DHT22;3902;49.474;8.616;2024-01-27T08:59:19;4.00;99.90
7720;DHT22;3902;49.474;8.616;2024-01-27T09:01:44;4.00;99.90
7720;DHT22;3902;49.474;8.616;2024-01-27T09:04:10;4.00;99.90
7720;DHT22;3902;49.474;8.616;2024-01-27T09:06:35;4.10;99.90
7720;DHT22;3902;49.474;8.616;2024-01-27T09:09:01;4.00;99.90
7720;DHT22;3902;49.474;8.616;2024-01-27T09:11:27;4.10;99.90
7720;DHT22;3902;49.474;8.616;2024-01-27T09:13:55;4.10;99.90
7720;DHT22;3902;49.474;8.616;2024-01-27T09:16:21;4.10;99.90
7720;DHT22;3902;49.474;8.616;2024-01-27T09:18:47;4.10;99.90
7720;DHT22;3902;49.474;8.616;2024-01-27T09:21:12;4.20;99.90
7720;DHT22;3902;49.474;8.616;2024-01-27T09:23:39;4.20;99.90
7720;DHT22;3902;49.474;8.616;2024-01-27T09:26:05;4.30;99.90
7720;DHT22;3902;49.474;8.616;2024-01-27T09:28:30;4.30;99.90
7720;DHT22;3902;49.474;8.616;2024-01-27T09:30:56;4.40;99.90
7720;DHT22;3902;49.474;8.616;2024-01-27T09:33:21;4.40;99.90
7720;DHT22;3902;49.474;8.616;2024-01-27T09:35:49;4.50;99.90
7720;DHT22;3902;49.474;8.616;2024-01-27T09:38:14;4.50;99.90
7720;DHT22;3902;49.474;8.616;2024-01-27T09:40:40;4.50;99.90
7720;DHT22;3902;49.474;8.616;2024-01-27T09:43:06;4.50;99.90
7720;DHT22;3902;49.474;8.616;2024-01-27T09:45:32;4.60;99.90
7720;DHT22;3902;49.474;8.616;2024-01-27T09:47:59;4.60;99.90
7720;DHT22;3902;49.474;8.616;2024-01-27T09:50:25;4.60;99.90
7720;DHT22;3902;49.474;8.616;2024-01-27T09:52:51;4.70;99.90
7720;DHT22;3902;49.474;8.616;2024-01-27T09:55:16;4.80;99.90
7720;DHT22;3902;49.474;8.616;2024-01-27T09:57:44;4.80;99.90
7720;DHT22;3902;49.474;8.616;2024-01-27T10:00:10;4.90;99.90
7720;DHT22;3902;49.474;8.616;2024-01-27T10:02:39;4.90;99.90
7720;DHT22;3902;49.474;8.616;2024-01-27T10:05:08;5.00;99.90
7720;DHT22;3902;49.474;8.616;2024-01-27T10:07:34;5.00;99.90
7720;DHT22;3902;49.474;8.616;2024-01-27T10:09:59;5.10;99.90
7720;DHT22;3902;49.474;8.616;2024-01-27T10:12:26;5.10;99.90
7720;DHT22;3902;49.474;8.616;2024-01-27T10:14:53;5.10;99.90
7720;DHT22;3902;49.474;8.616;2024-01-27T10:17:22;5.20;99.90
7720;DHT22;3902;49.474;8.616;2024-01-27T10:19:59;5.30;99.90
7720;DHT22;3902;49.474;8.616;2024-01-27T10:22:26;5.40;99.90
7720;DHT22;3902;49.474;8.616;2024-01-27T10:24:52;5.40;99.90
7720;DHT22;3902;49.474;8.616;2024-01-27T10:27:18;5.40;99.90
7720;DHT22;3902;49.474;8.616;2024-01-27T10:29:54;5.50;99.90
7720;DHT22;3902;49.474;8.616;2024-01-27T10:32:20;5.60;99.90
7720;DHT22;3902;49.474;8.616;2024-01-27T10:35:09;5.70;99.90
7720;DHT22;3902;49.474;8.616;2024-01-27T10:37:35;5.80;99.90
7720;DHT22;3902;49.474;8.616;2024-01-27T10:40:05;5.80;99.90
7720;DHT22;3902;49.474;8.616;2024-01-27T10:42:35;5.90;99.90
7720;DHT22;3902;49.474;8.616;2024-01-27T10:45:00;6.00;99.90
7720;DHT22;3902;49.474;8.616;2024-01-27T10:47:31;6.10;99.90
7720;DHT22;3902;49.474;8.616;2024-01-27T10:49:57;6.20;99.90
7720;DHT22;3902;49.474;8.616;2024-01-27T10:52:32;6.20;99.90
7720;DHT22;3902;49.474;8.616;2024-01-27T10:55:05;6.30;99.90
7720;DHT22;3902;49.474;8.616;2024-01-27T10:57:36;6.40;99.90
7720;DHT22;3902;49.474;8.616;2024-01-27T11:00:03;6.50;99.90
7720;DHT22;3902;49.474;8.616;2024-01-27T11:02:33;6.60;99.90
7720;DHT22;3902;49.474;8.616;2024-01-27T11:05:00;6.70;99.90
7720;DHT22;3902;49.474;8.616;2024-01-27T11:07:27;6.80;99.90
7720;DHT22;3902;49.474;8.616;2024-01-27T11:09:53;6.90;99.90
7720;DHT22;3902;49.474;8.616;2024-01-27T11:12:21;7.10;99.90
7720;DHT22;3902;49.474;8.616;2024-01-27T11:14:48;7.30;99.90
7720;DHT22;3902;49.474;8.616;2024-01-27T11:17:15;7.80;99.90
7720;DHT22;3902;49.474;8.616;2024-01-27T11:19:41;8.50;99.90
7720;DHT22;3902;49.474;8.616;2024-01-27T11:22:06;9.30;99.90
7720;DHT22;3902;49.474;8.616;2024-01-27T11:24:32;10.20;99.90
7720;DHT22;3902;49.474;8.616;2024-01-27T11:27:05;11.10;99.90
7720;DHT22;3902;49.474;8.616;2024-01-27T11:29:31;12.00;99.90
7720;DHT22;3902;49.474;8.616;2024-01-27T11:32:00;13.00;99.90
7720;DHT22;3902;49.474;8.616;2024-01-27T11:34:27;14.00;99.90
7720;DHT22;3902;49.474;8.616;2024-01-27T11:36:53;14.80;99.90
7720;DHT22;3902;49.474;8.616;2024-01-27T11:42:04;16.30;99.90
7720;DHT22;3902;49.474;8.616;2024-01-27T11:44:29;17.10;99.90
7720;DHT22;3902;49.474;8.616;2024-01-27T11:46:55;17.70;99.90
7720;DHT22;3902;49.474;8.616;2024-01-27T11:49:20;18.20;99.90
7720;DHT22;3902;49.474;8.616;2024-01-27T11:51:47;18.60;99.90
7720;DHT22;3902;49.474;8.616;2024-01-27T11:54:13;19.10;99.90
7720;DHT22;3902;49.474;8.616;2024-01-27T11:56:38;19.30;99.90
7720;DHT22;3902;49.474;8.616;2024-01-27T11:59:04;19.70;99.90
7720;DHT22;3902;49.474;8.616;2024-01-27T12:01:30;19.90;97.90
7720;DHT22;3902;49.474;8.616;2024-01-27T12:03:56;20.30;96.30
7720;DHT22;3902;49.474;8.616;2024-01-27T12:06:22;20.70;97.10
7720;DHT22;3902;49.474;8.616;2024-01-27T12:08:48;20.80;96.80
7720;DHT22;3902;49.474;8.616;2024-01-27T12:11:14;20.80;93.90
7720;DHT22;3902;49.474;8.616;2024-01-27T12:13:40;21.20;94.70
7720;DHT22;3902;49.474;8.616;2024-01-27T12:16:06;21.70;94.10
7720;DHT22;3902;49.474;8.616;2024-01-27T12:18:32;21.60;92.20
7720;DHT22;3902;49.474;8.616;2024-01-27T12:20:58;22.00;91.40
7720;DHT22;3902;49.474;8.616;2024-01-27T12:23:23;22.40;89.50
7720;DHT22;3902;49.474;8.616;2024-01-27T12:25:53;22.50;84.90
7720;DHT22;3902;49.474;8.616;2024-01-27T12:28:19;21.90;85.40
7720;DHT22;3902;49.474;8.616;2024-01-27T12:30:45;22.20;85.50
7720;DHT22;3902;49.474;8.616;2024-01-27T12:33:12;21.60;87.00
7720;DHT22;3902;49.474;8.616;2024-01-27T12:35:38;22.30;87.90
7720;DHT22;3902;49.474;8.616;2024-01-27T12:38:05;22.40;81.80
7720;DHT22;3902;49.474;8.616;2024-01-27T12:40:31;22.30;81.40
7720;DHT22;3902;49.474;8.616;2024-01-27T12:42:57;22.00;85.80
7720;DHT22;3902;49.474;8.616;2024-01-27T12:45:22;22.50;80.40
7720;DHT22;3902;49.474;8.616;2024-01-27T12:47:48;22.80;84.80
7720;DHT22;3902;49.474;8.616;2024-01-27T12:50:14;23.40;85.40
7720;DHT22;3902;49.474;8.616;2024-01-27T12:52:40;23.40;79.10
7720;DHT22;3902;49.474;8.616;2024-01-27T12:55:06;23.00;83.60
7720;DHT22;3902;49.474;8.616;2024-01-27T12:57:31;23.70;81.90
7720;DHT22;3902;49.474;8.616;2024-01-27T12:59:57;23.80;81.50
7720;DHT22;3902;49.474;8.616;2024-01-27T13:02:22;24.00;80.50
7720;DHT22;3902;49.474;8.616;2024-01-27T13:04:48;23.80;79.60
7720;DHT22;3902;49.474;8.616;2024-01-27T13:07:13;23.90;81.20
7720;DHT22;3902;49.474;8.616;2024-01-27T13:09:39;24.00;81.80
7720;DHT22;3902;49.474;8.616;2024-01-27T13:12:05;23.60;78.90
7720;DHT22;3902;49.474;8.616;2024-01-27T13:14:31;23.80;80.20
7720;DHT22;3902;49.474;8.616;2024-01-27T13:16:57;23.60;78.60
7720;DHT22;3902;49.474;8.616;2024-01-27T13:19:25;23.50;78.00
7720;DHT22;3902;49.474;8.616;2024-01-27T13:21:51;23.20;77.60
7720;DHT22;3902;49.474;8.616;2024-01-27T13:24:16;23.20;79.20
7720;DHT22;3902;49.474;8.616;2024-01-27T13:26:42;23.10;77.90
7720;DHT22;3902;49.474;8.616;2024-01-27T13:29:07;23.20;75.60
7720;DHT22;3902;49.474;8.616;2024-01-27T13:31:34;23.20;76.50
7720;DHT22;3902;49.474;8.616;2024-01-27T13:33:59;22.90;75.60
7720;DHT22;3902;49.474;8.616;2024-01-27T13:36:25;22.40;76.80
7720;DHT22;3902;49.474;8.616;2024-01-27T13:38:51;22.20;73.80
7720;DHT22;3902;49.474;8.616;2024-01-27T13:41:19;22.20;76.60
7720;DHT22;3902;49.474;8.616;2024-01-27T13:43:45;22.00;76.30
7720;DHT22;3902;49.474;8.616;2024-01-27T13:46:11;21.70;77.40
7720;DHT22;3902;49.474;8.616;2024-01-27T13:48:37;21.60;78.70
7720;DHT22;3902;49.474;8.616;2024-01-27T13:51:03;21.50;79.20
7720;DHT22;3902;49.474;8.616;2024-01-27T13:53:29;21.40;78.00
7720;DHT22;3902;49.474;8.616;2024-01-27T13:55:54;21.20;77.90
7720;DHT22;3902;49.474;8.616;2024-01-27T13:58:20;21.20;78.50
7720;DHT22;3902;49.474;8.616;2024-01-27T14:00:47;21.00;79.90
7720;DHT22;3902;49.474;8.616;2024-01-27T14:03:13;20.80;80.00
7720;DHT22;3902;49.474;8.616;2024-01-27T14:05:38;20.50;78.20
7720;DHT22;3902;49.474;8.616;2024-01-27T14:08:05;20.30;79.00
7720;DHT22;3902;49.474;8.616;2024-01-27T14:10:32;20.20;78.60
7720;DHT22;3902;49.474;8.616;2024-01-27T14:12:58;20.10;80.90
7720;DHT22;3902;49.474;8.616;2024-01-27T14:15:23;20.10;80.10
7720;DHT22;3902;49.474;8.616;2024-01-27T14:17:49;19.90;79.90
7720;DHT22;3902;49.474;8.616;2024-01-27T14:20:14;19.60;76.50
7720;DHT22;3902;49.474;8.616;2024-01-27T14:22:40;19.70;80.30
7720;DHT22;3902;49.474;8.616;2024-01-27T14:25:05;19.70;80.10
7720;DHT22;3902;49.474;8.616;2024-01-27T14:27:33;19.50;78.80
7720;DHT22;3902;49.474;8.616;2024-01-27T14:30:00;19.30;79.20
7720;DHT22;3902;49.474;8.616;2024-01-27T14:32:25;18.90;79.00
7720;DHT22;3902;49.474;8.616;2024-01-27T14:34:51;18.60;80.50
7720;DHT22;3902;49.474;8.616;2024-01-27T14:37:17;18.30;80.80
7720;DHT22;3902;49.474;8.616;2024-01-27T14:39:44;18.00;81.20
7720;DHT22;3902;49.474;8.616;2024-01-27T14:42:12;17.80;81.10
7720;DHT22;3902;49.474;8.616;2024-01-27T14:44:38;17.40;83.40
7720;DHT22;3902;49.474;8.616;2024-01-27T14:47:05;17.10;83.90
7720;DHT22;3902;49.474;8.616;2024-01-27T14:49:30;16.70;84.40
7720;DHT22;3902;49.474;8.616;2024-01-27T14:51:56;16.30;87.40
7720;DHT22;3902;49.474;8.616;2024-01-27T14:54:21;16.00;87.50
7720;DHT22;3902;49.474;8.616;2024-01-27T14:56:47;15.80;87.70
7720;DHT22;3902;49.474;8.616;2024-01-27T14:59:12;15.60;89.30
7720;DHT22;3902;49.474;8.616;2024-01-27T15:01:38;15.40;90.20
7720;DHT22;3902;49.474;8.616;2024-01-27T15:04:04;15.30;90.10
7720;DHT22;3902;49.474;8.616;2024-01-27T15:06:29;15.00;89.80
7720;DHT22;3902;49.474;8.616;2024-01-27T15:08:55;14.70;89.60
7720;DHT22;3902;49.474;8.616;2024-01-27T15:11:21;14.60;90.30
7720;DHT22;3902;49.474;8.616;2024-01-27T15:13:47;14.40;91.00
7720;DHT22;3902;49.474;8.616;2024-01-27T15:16:12;14.10;91.10
7720;DHT22;3902;49.474;8.616;2024-01-27T15:18:38;13.90;91.70
7720;DHT22;3902;49.474;8.616;2024-01-27T15:21:08;13.70;92.40
7720;DHT22;3902;49.474;8.616;2024-01-27T15:23:34;13.50;92.80
7720;DHT22;3902;49.474;8.616;2024-01-27T15:26:00;13.20;93.20
7720;DHT22;3902;49.474;8.616;2024-01-27T15:28:26;13.00;93.50
7720;DHT22;3902;49.474;8.616;2024-01-27T15:30:52;12.80;93.80
7720;DHT22;3902;49.474;8.616;2024-01-27T15:33:18;12.80;94.20
7720;DHT22;3902;49.474;8.616;2024-01-27T15:35:43;12.60;94.50
7720;DHT22;3902;49.474;8.616;2024-01-27T15:38:09;12.50;94.30
7720;DHT22;3902;49.474;8.616;2024-01-27T15:40:34;12.30;94.80
7720;DHT22;3902;49.474;8.616;2024-01-27T15:43:00;12.10;94.70
7720;DHT22;3902;49.474;8.616;2024-01-27T15:45:25;12.00;95.20
7720;DHT22;3902;49.474;8.616;2024-01-27T15:47:51;11.90;95.40
7720;DHT22;3902;49.474;8.616;2024-01-27T15:50:18;11.90;95.50
7720;DHT22;3902;49.474;8.616;2024-01-27T15:52:44;11.70;95.90
7720;DHT22;3902;49.474;8.616;2024-01-27T15:55:09;11.60;96.10
7720;DHT22;3902;49.474;8.616;2024-01-27T15:57:35;11.50;96.30
7720;DHT22;3902;49.474;8.616;2024-01-27T16:00:04;11.40;96.80
7720;DHT22;3902;49.474;8.616;2024-01-27T16:02:30;11.20;96.90
7720;DHT22;3902;49.474;8.616;2024-01-27T16:04:55;11.10;97.20
7720;DHT22;3902;49.474;8.616;2024-01-27T16:07:21;11.10;97.50